sensor_id;sensor_type;location;lat;lon;timestamp;pressure;altitude;pressure_sealevel;temperature;humidity
63691;BME280;49837;57.280;27.070;2022-09-09T00:00:41;101321.23;;;-0.25;99.64
63691;BME280;49837;57.280;27.070;2022-09-09T00:05:00;101321.41;;;-0.35;99.92
63691;BME280;49837;57.280;27.070;2022-09-09T00:07:59;101314.25;;;-0.38;99.75
63691;BME280;49837;57.280;27.070;2022-09-09T00:11:03;101314.94;;;-0.35;99.8
63691;BME280;49837;57.280;27.070;2022-09-09T00:14:16;101324.12;;;-0.37;99.74
63691;BME280;49837;57.280;27.070;2022-09-09T00:22:30;101317.47;;;-0.4;99.74
63691;BME280;49837;57.280;27.070;2022-09-09T00:23:36;101316.28;;;-0.41;99.73
63691;BME280;49837;57.280;27.070;2022-09-09T00:27:48;101319.33;;;-0.42;99.86
63691;BME280;49837;57.280;27.070;2022-09-09T00:30:55;101325.12;;;-0.47;99.85
63691;BME280;49837;57.280;27.070;2022-09-09T00:31:57;101321.07;;;-0.47;99.94
63691;BME280;49837;57.280;27.070;2022-09-09T00:36:12;101318.73;;;-0.48;99.95
63691;BME280;49837;57.280;27.070;2022-09-09T00:37:10;101320.78;;;-0.46;100.0
63691;BME280;49837;57.280;27.070;2022-09-09T00:38:16;101323.47;;;-0.44;100.0
63691;BME280;49837;57.280;27.070;2022-09-09T00:43:31;101318.86;;;-0.55;99.72
63691;BME280;49837;57.280;27.070;2022-09-09T00:46:47;101315.9;;;-0.62;99.57
63691;BME280;49837;57.280;27.070;2022-09-09T00:48:43;101313.3;;;-0.67;99.75
63691;BME280;49837;57.280;27.070;2022-09-09T00:50:55;101315.31;;;-0.67;99.67
63691;BME280;49837;57.280;27.070;2022-09-09T00:52:21;101315.75;;;-0.67;99.62
63691;BME280;49837;57.280;27.070;2022-09-09T00:55:13;101311.41;;;-0.73;99.75
63691;BME280;49837;57.280;27.070;2022-09-09T00:58:07;101309.22;;;-0.8;99.59
63691;BME280;49837;57.280;27.070;2022-09-09T01:01:14;101311.3;;;-0.79;99.85
63691;BME280;49837;57.280;27.070;2022-09-09T01:07:22;101303.39;;;-0.88;99.96
63691;BME280;49837;57.280;27.070;2022-09-09T01:11:43;101310.98;;;-0.93;100.0
63691;BME280;49837;57.280;27.070;2022-09-09T01:12:41;101310.98;;;-0.92;100.0
63691;BME280;49837;57.280;27.070;2022-09-09T01:13:41;101309.83;;;-0.91;100.0
63691;BME280;49837;57.280;27.070;2022-09-09T01:14:43;101302.33;;;-0.87;100.0
63691;BME280;49837;57.280;27.070;2022-09-09T01:15:43;101308.14;;;-0.88;100.0
63691;BME280;49837;57.280;27.070;2022-09-09T01:16:43;101307.33;;;-0.87;100.0
63691;BME280;49837;57.280;27.070;2022-09-09T01:18:50;101309.6;;;-0.83;100.0
63691;BME280;49837;57.280;27.070;2022-09-09T01:19:58;101309.14;;;-0.82;100.0
63691;BME280;49837;57.280;27.070;2022-09-09T01:27:07;101303.27;;;-0.86;100.0
63691;BME280;49837;57.280;27.070;2022-09-09T01:29:14;101300.41;;;-0.89;99.95
63691;BME280;49837;57.280;27.070;2022-09-09T01:30:14;101300.73;;;-0.89;99.92
63691;BME280;49837;57.280;27.070;2022-09-09T01:31:17;101300.06;;;-0.94;99.76
63691;BME280;49837;57.280;27.070;2022-09-09T01:33:21;101301.74;;;-0.95;99.82
63691;BME280;49837;57.280;27.070;2022-09-09T01:34:24;101306.62;;;-0.95;99.78
63691;BME280;49837;57.280;27.070;2022-09-09T01:36:29;101303.39;;;-0.97;99.77
63691;BME280;49837;57.280;27.070;2022-09-09T01:37:28;101302.44;;;-0.94;99.82
63691;BME280;49837;57.280;27.070;2022-09-09T01:38:30;101303.98;;;-0.92;99.83
63691;BME280;49837;57.280;27.070;2022-09-09T01:39:29;101303.9;;;-0.92;99.8
63691;BME280;49837;57.280;27.070;2022-09-09T01:40:30;101300.55;;;-0.94;99.75
63691;BME280;49837;57.280;27.070;2022-09-09T01:41:30;101300.22;;;-0.94;99.76
63691;BME280;49837;57.280;27.070;2022-09-09T01:42:30;101303.69;;;-0.9;99.76
63691;BME280;49837;57.280;27.070;2022-09-09T01:43:31;101300.17;;;-0.91;99.75
63691;BME280;49837;57.280;27.070;2022-09-09T01:44:31;101302.29;;;-0.89;99.76
63691;BME280;49837;57.280;27.070;2022-09-09T01:45:31;101301.85;;;-0.91;99.72
63691;BME280;49837;57.280;27.070;2022-09-09T01:46:31;101304.11;;;-0.92;99.68
63691;BME280;49837;57.280;27.070;2022-09-09T01:47:32;101303.5;;;-0.94;99.74
63691;BME280;49837;57.280;27.070;2022-09-09T01:48:33;101306.27;;;-0.92;99.86
63691;BME280;49837;57.280;27.070;2022-09-09T01:49:33;101303.16;;;-0.91;99.97
63691;BME280;49837;57.280;27.070;2022-09-09T01:50:33;101305.82;;;-0.9;99.95
63691;BME280;49837;57.280;27.070;2022-09-09T01:51:34;101304.67;;;-0.88;99.93
63691;BME280;49837;57.280;27.070;2022-09-09T01:52:36;101305.89;;;-0.86;99.97
63691;BME280;49837;57.280;27.070;2022-09-09T01:53:34;101304.2;;;-0.83;99.98
63691;BME280;49837;57.280;27.070;2022-09-09T01:54:35;101304.7;;;-0.85;99.78
63691;BME280;49837;57.280;27.070;2022-09-09T01:57:54;101299.67;;;-1.0;99.62
63691;BME280;49837;57.280;27.070;2022-09-09T02:04:04;101294.89;;;-1.15;99.92
63691;BME280;49837;57.280;27.070;2022-09-09T02:07:20;101297.45;;;-1.12;99.97
63691;BME280;49837;57.280;27.070;2022-09-09T02:08:20;101296.84;;;-1.11;99.98
63691;BME280;49837;57.280;27.070;2022-09-09T02:09:14;101297.5;;;-1.11;100.0
63691;BME280;49837;57.280;27.070;2022-09-09T02:10:23;101297.32;;;-1.09;100.0
63691;BME280;49837;57.280;27.070;2022-09-09T02:11:19;101294.14;;;-1.11;99.92
63691;BME280;49837;57.280;27.070;2022-09-09T02:12:19;101296.61;;;-1.17;99.68
63691;BME280;49837;57.280;27.070;2022-09-09T02:13:22;101294.45;;;-1.18;99.51
63691;BME280;49837;57.280;27.070;2022-09-09T02:14:25;101297.16;;;-1.18;99.47
63691;BME280;49837;57.280;27.070;2022-09-09T02:16:38;101301.03;;;-1.17;99.52
63691;BME280;49837;57.280;27.070;2022-09-09T02:17:31;101302.52;;;-1.19;99.59
63691;BME280;49837;57.280;27.070;2022-09-09T02:18:37;101298.5;;;-1.22;99.64
63691;BME280;49837;57.280;27.070;2022-09-09T02:19:36;101300.92;;;-1.23;99.64
63691;BME280;49837;57.280;27.070;2022-09-09T02:20:37;101297.94;;;-1.26;99.54
63691;BME280;49837;57.280;27.070;2022-09-09T02:21:35;101300.2;;;-1.24;99.66
63691;BME280;49837;57.280;27.070;2022-09-09T02:22:37;101292.73;;;-1.23;99.77
63691;BME280;49837;57.280;27.070;2022-09-09T02:23:37;101292.58;;;-1.25;99.77
63691;BME280;49837;57.280;27.070;2022-09-09T02:24:38;101292.45;;;-1.22;99.97
63691;BME280;49837;57.280;27.070;2022-09-09T02:25:37;101294.12;;;-1.2;99.97
63691;BME280;49837;57.280;27.070;2022-09-09T02:26:40;101293.56;;;-1.22;99.96
63691;BME280;49837;57.280;27.070;2022-09-09T02:27:40;101294.99;;;-1.24;100.0
63691;BME280;49837;57.280;27.070;2022-09-09T02:28:40;101298.28;;;-1.28;100.0
63691;BME280;49837;57.280;27.070;2022-09-09T02:29:41;101294.44;;;-1.3;100.0
63691;BME280;49837;57.280;27.070;2022-09-09T02:30:40;101293.03;;;-1.28;100.0
63691;BME280;49837;57.280;27.070;2022-09-09T02:31:41;101294.07;;;-1.28;100.0
63691;BME280;49837;57.280;27.070;2022-09-09T02:32:42;101293.03;;;-1.28;100.0
63691;BME280;49837;57.280;27.070;2022-09-09T02:33:44;101293.81;;;-1.27;100.0
63691;BME280;49837;57.280;27.070;2022-09-09T02:34:50;101290.0;;;-1.26;100.0
63691;BME280;49837;57.280;27.070;2022-09-09T02:35:50;101289.67;;;-1.24;100.0
63691;BME280;49837;57.280;27.070;2022-09-09T02:36:50;101289.15;;;-1.27;100.0
63691;BME280;49837;57.280;27.070;2022-09-09T02:37:51;101290.12;;;-1.23;100.0
63691;BME280;49837;57.280;27.070;2022-09-09T02:38:51;101286.45;;;-1.26;100.0
63691;BME280;49837;57.280;27.070;2022-09-09T02:39:51;101288.25;;;-1.29;100.0
63691;BME280;49837;57.280;27.070;2022-09-09T02:40:51;101291.05;;;-1.3;100.0
63691;BME280;49837;57.280;27.070;2022-09-09T02:41:51;101289.41;;;-1.31;100.0
63691;BME280;49837;57.280;27.070;2022-09-09T02:42:54;101291.2;;;-1.31;100.0
63691;BME280;49837;57.280;27.070;2022-09-09T02:43:52;101291.28;;;-1.29;100.0
63691;BME280;49837;57.280;27.070;2022-09-09T02:44:53;101292.31;;;-1.3;100.0
63691;BME280;49837;57.280;27.070;2022-09-09T02:48:26;101290.84;;;-1.32;100.0
63691;BME280;49837;57.280;27.070;2022-09-09T02:49:11;101291.17;;;-1.34;100.0
63691;BME280;49837;57.280;27.070;2022-09-09T02:52:20;101289.75;;;-1.37;99.83
63691;BME280;49837;57.280;27.070;2022-09-09T02:53:22;101291.21;;;-1.36;99.82
63691;BME280;49837;57.280;27.070;2022-09-09T02:54:29;101297.55;;;-1.3;99.92
63691;BME280;49837;57.280;27.070;2022-09-09T02:56:25;101297.29;;;-1.26;99.83
63691;BME280;49837;57.280;27.070;2022-09-09T02:57:28;101298.12;;;-1.28;99.84
63691;BME280;49837;57.280;27.070;2022-09-09T02:58:27;101296.56;;;-1.32;99.75
63691;BME280;49837;57.280;27.070;2022-09-09T02:59:27;101293.28;;;-1.3;99.77
63691;BME280;49837;57.280;27.070;2022-09-09T03:00:28;101294.84;;;-1.3;99.78
63691;BME280;49837;57.280;27.070;2022-09-09T03:01:28;101291.98;;;-1.32;99.79
63691;BME280;49837;57.280;27.070;2022-09-09T03:02:28;101293.12;;;-1.3;99.86
63691;BME280;49837;57.280;27.070;2022-09-09T03:03:28;101295.51;;;-1.32;99.85
63691;BME280;49837;57.280;27.070;2022-09-09T03:04:29;101293.88;;;-1.32;99.9
63691;BME280;49837;57.280;27.070;2022-09-09T03:05:29;101294.66;;;-1.35;99.82
63691;BME280;49837;57.280;27.070;2022-09-09T03:06:29;101298.38;;;-1.37;99.93
63691;BME280;49837;57.280;27.070;2022-09-09T03:07:30;101297.23;;;-1.34;100.0
63691;BME280;49837;57.280;27.070;2022-09-09T03:08:30;101295.1;;;-1.34;100.0
63691;BME280;49837;57.280;27.070;2022-09-09T03:09:31;101296.7;;;-1.35;100.0
63691;BME280;49837;57.280;27.070;2022-09-09T03:10:32;101294.73;;;-1.35;100.0
63691;BME280;49837;57.280;27.070;2022-09-09T03:11:31;101302.09;;;-1.33;100.0
63691;BME280;49837;57.280;27.070;2022-09-09T03:12:31;101297.88;;;-1.32;100.0
63691;BME280;49837;57.280;27.070;2022-09-09T03:13:32;101301.73;;;-1.34;100.0
63691;BME280;49837;57.280;27.070;2022-09-09T03:14:32;101299.11;;;-1.34;100.0
63691;BME280;49837;57.280;27.070;2022-09-09T03:15:33;101299.31;;;-1.33;100.0
63691;BME280;49837;57.280;27.070;2022-09-09T03:16:33;101298.28;;;-1.32;100.0
63691;BME280;49837;57.280;27.070;2022-09-09T03:17:33;101298.78;;;-1.34;99.98
63691;BME280;49837;57.280;27.070;2022-09-09T03:18:33;101296.3;;;-1.37;99.92
63691;BME280;49837;57.280;27.070;2022-09-09T03:19:34;101296.21;;;-1.35;100.0
63691;BME280;49837;57.280;27.070;2022-09-09T03:20:34;101295.11;;;-1.36;99.96
63691;BME280;49837;57.280;27.070;2022-09-09T03:21:34;101296.01;;;-1.39;99.81
63691;BME280;49837;57.280;27.070;2022-09-09T03:22:35;101295.84;;;-1.39;99.79
63691;BME280;49837;57.280;27.070;2022-09-09T03:23:35;101294.62;;;-1.38;99.87
63691;BME280;49837;57.280;27.070;2022-09-09T03:24:35;101292.04;;;-1.37;99.84
63691;BME280;49837;57.280;27.070;2022-09-09T03:25:36;101295.68;;;-1.39;99.87
63691;BME280;49837;57.280;27.070;2022-09-09T03:26:36;101294.83;;;-1.4;99.82
63691;BME280;49837;57.280;27.070;2022-09-09T03:27:36;101295.4;;;-1.39;99.92
63691;BME280;49837;57.280;27.070;2022-09-09T03:28:37;101293.27;;;-1.38;99.93
63691;BME280;49837;57.280;27.070;2022-09-09T03:29:37;101293.63;;;-1.36;99.92
63691;BME280;49837;57.280;27.070;2022-09-09T03:30:37;101298.41;;;-1.33;99.94
63691;BME280;49837;57.280;27.070;2022-09-09T03:31:39;101294.52;;;-1.32;99.96
63691;BME280;49837;57.280;27.070;2022-09-09T03:32:38;101298.58;;;-1.33;100.0
63691;BME280;49837;57.280;27.070;2022-09-09T03:33:39;101295.62;;;-1.33;99.87
63691;BME280;49837;57.280;27.070;2022-09-09T03:34:39;101297.97;;;-1.35;99.76
63691;BME280;49837;57.280;27.070;2022-09-09T03:35:39;101297.23;;;-1.37;99.7
63691;BME280;49837;57.280;27.070;2022-09-09T03:36:41;101298.86;;;-1.34;99.62
63691;BME280;49837;57.280;27.070;2022-09-09T03:37:42;101300.91;;;-1.32;99.68
63691;BME280;49837;57.280;27.070;2022-09-09T03:38:42;101299.88;;;-1.29;99.73
63691;BME280;49837;57.280;27.070;2022-09-09T03:39:42;101302.12;;;-1.27;99.75
63691;BME280;49837;57.280;27.070;2022-09-09T03:41:46;101305.64;;;-1.26;99.85
63691;BME280;49837;57.280;27.070;2022-09-09T03:42:46;101306.59;;;-1.26;99.82
63691;BME280;49837;57.280;27.070;2022-09-09T03:43:47;101311.53;;;-1.25;99.72
63691;BME280;49837;57.280;27.070;2022-09-09T03:44:47;101313.53;;;-1.22;99.68
63691;BME280;49837;57.280;27.070;2022-09-09T03:45:47;101315.12;;;-1.22;99.6
63691;BME280;49837;57.280;27.070;2022-09-09T03:46:48;101317.58;;;-1.19;99.65
63691;BME280;49837;57.280;27.070;2022-09-09T03:47:48;101318.3;;;-1.17;99.73
63691;BME280;49837;57.280;27.070;2022-09-09T03:48:48;101314.25;;;-1.16;99.82
63691;BME280;49837;57.280;27.070;2022-09-09T03:49:49;101315.27;;;-1.15;99.8
63691;BME280;49837;57.280;27.070;2022-09-09T03:50:51;101318.34;;;-1.16;99.79
63691;BME280;49837;57.280;27.070;2022-09-09T03:51:49;101319.88;;;-1.19;99.7
63691;BME280;49837;57.280;27.070;2022-09-09T03:52:50;101320.7;;;-1.26;99.51
63691;BME280;49837;57.280;27.070;2022-09-09T03:53:50;101319.89;;;-1.28;99.37
63691;BME280;49837;57.280;27.070;2022-09-09T03:54:50;101321.41;;;-1.29;99.25
63691;BME280;49837;57.280;27.070;2022-09-09T03:55:52;101321.16;;;-1.3;99.23
63691;BME280;49837;57.280;27.070;2022-09-09T03:56:51;101321.73;;;-1.31;99.21
63691;BME280;49837;57.280;27.070;2022-09-09T03:57:51;101325.79;;;-1.29;99.23
63691;BME280;49837;57.280;27.070;2022-09-09T03:58:51;101328.48;;;-1.3;99.21
63691;BME280;49837;57.280;27.070;2022-09-09T03:59:52;101327.87;;;-1.29;99.22
63691;BME280;49837;57.280;27.070;2022-09-09T04:01:00;101327.66;;;-1.3;99.16
63691;BME280;49837;57.280;27.070;2022-09-09T04:01:52;101330.78;;;-1.27;99.22
63691;BME280;49837;57.280;27.070;2022-09-09T04:02:53;101328.98;;;-1.27;99.25
63691;BME280;49837;57.280;27.070;2022-09-09T04:03:53;101329.01;;;-1.24;99.25
63691;BME280;49837;57.280;27.070;2022-09-09T04:04:53;101329.74;;;-1.25;99.16
63691;BME280;49837;57.280;27.070;2022-09-09T04:05:55;101327.38;;;-1.27;99.13
63691;BME280;49837;57.280;27.070;2022-09-09T04:06:54;101329.3;;;-1.27;99.17
63691;BME280;49837;57.280;27.070;2022-09-09T04:07:54;101324.55;;;-1.27;99.21
63691;BME280;49837;57.280;27.070;2022-09-09T04:08:55;101322.5;;;-1.25;99.24
63691;BME280;49837;57.280;27.070;2022-09-09T04:09:55;101326.09;;;-1.19;99.3
63691;BME280;49837;57.280;27.070;2022-09-09T04:10:55;101328.7;;;-1.17;99.27
63691;BME280;49837;57.280;27.070;2022-09-09T04:11:56;101325.34;;;-1.15;99.22
63691;BME280;49837;57.280;27.070;2022-09-09T04:12:56;101325.54;;;-1.12;99.2
63691;BME280;49837;57.280;27.070;2022-09-09T04:13:56;101329.62;;;-1.08;99.18
63691;BME280;49837;57.280;27.070;2022-09-09T04:14:57;101330.53;;;-1.07;99.06
63691;BME280;49837;57.280;27.070;2022-09-09T04:15:58;101329.0;;;-1.06;98.98
63691;BME280;49837;57.280;27.070;2022-09-09T04:16:57;101331.17;;;-1.05;98.94
63691;BME280;49837;57.280;27.070;2022-09-09T04:17:57;101331.08;;;-1.01;98.99
63691;BME280;49837;57.280;27.070;2022-09-09T04:18:58;101329.27;;;-0.97;99.0
63691;BME280;49837;57.280;27.070;2022-09-09T04:19:58;101331.55;;;-0.93;99.04
63691;BME280;49837;57.280;27.070;2022-09-09T04:20:59;101330.88;;;-0.91;99.13
63691;BME280;49837;57.280;27.070;2022-09-09T04:21:59;101330.59;;;-0.9;99.22
63691;BME280;49837;57.280;27.070;2022-09-09T04:22:59;101332.0;;;-0.84;99.31
63691;BME280;49837;57.280;27.070;2022-09-09T04:23:59;101332.59;;;-0.79;99.34
63691;BME280;49837;57.280;27.070;2022-09-09T04:25:00;101333.16;;;-0.75;99.38
63691;BME280;49837;57.280;27.070;2022-09-09T04:26:01;101332.09;;;-0.72;99.32
63691;BME280;49837;57.280;27.070;2022-09-09T04:27:01;101334.0;;;-0.72;99.16
63691;BME280;49837;57.280;27.070;2022-09-09T04:28:01;101334.9;;;-0.69;99.08
63691;BME280;49837;57.280;27.070;2022-09-09T04:29:02;101333.16;;;-0.66;98.97
63691;BME280;49837;57.280;27.070;2022-09-09T04:30:02;101334.7;;;-0.63;98.93
63691;BME280;49837;57.280;27.070;2022-09-09T04:32:06;101331.21;;;-0.6;98.9
63691;BME280;49837;57.280;27.070;2022-09-09T04:33:07;101333.16;;;-0.55;98.91
63691;BME280;49837;57.280;27.070;2022-09-09T04:34:07;101336.17;;;-0.52;98.98
63691;BME280;49837;57.280;27.070;2022-09-09T04:35:07;101336.9;;;-0.49;98.96
63691;BME280;49837;57.280;27.070;2022-09-09T04:36:07;101337.66;;;-0.46;98.93
63691;BME280;49837;57.280;27.070;2022-09-09T04:37:08;101338.02;;;-0.43;98.91
63691;BME280;49837;57.280;27.070;2022-09-09T04:38:08;101340.04;;;-0.39;99.07
63691;BME280;49837;57.280;27.070;2022-09-09T04:39:08;101341.03;;;-0.34;99.04
63691;BME280;49837;57.280;27.070;2022-09-09T04:40:09;101337.91;;;-0.32;98.95
63691;BME280;49837;57.280;27.070;2022-09-09T04:41:09;101335.98;;;-0.3;99.04
63691;BME280;49837;57.280;27.070;2022-09-09T04:42:09;101339.52;;;-0.27;99.04
63691;BME280;49837;57.280;27.070;2022-09-09T04:43:10;101341.52;;;-0.24;99.03
63691;BME280;49837;57.280;27.070;2022-09-09T04:44:10;101334.52;;;-0.25;98.89
63691;BME280;49837;57.280;27.070;2022-09-09T04:45:11;101336.14;;;-0.23;98.8
63691;BME280;49837;57.280;27.070;2022-09-09T04:46:11;101336.39;;;-0.17;98.79
63691;BME280;49837;57.280;27.070;2022-09-09T04:47:11;101338.12;;;-0.13;98.88
63691;BME280;49837;57.280;27.070;2022-09-09T04:48:12;101335.97;;;-0.08;98.84
63691;BME280;49837;57.280;27.070;2022-09-09T04:49:12;101340.06;;;-0.03;98.82
63691;BME280;49837;57.280;27.070;2022-09-09T04:50:12;101339.68;;;0.01;98.76
63691;BME280;49837;57.280;27.070;2022-09-09T04:51:13;101341.97;;;0.03;98.8
63691;BME280;49837;57.280;27.070;2022-09-09T04:52:13;101341.66;;;0.06;98.83
63691;BME280;49837;57.280;27.070;2022-09-09T04:53:13;101342.2;;;0.1;98.86
63691;BME280;49837;57.280;27.070;2022-09-09T04:54:14;101342.7;;;0.13;98.83
63691;BME280;49837;57.280;27.070;2022-09-09T04:55:14;101337.39;;;0.17;98.84
63691;BME280;49837;57.280;27.070;2022-09-09T04:56:15;101342.28;;;0.21;98.8
63691;BME280;49837;57.280;27.070;2022-09-09T04:57:15;101339.13;;;0.25;98.81
63691;BME280;49837;57.280;27.070;2022-09-09T04:58:15;101337.39;;;0.27;98.62
63691;BME280;49837;57.280;27.070;2022-09-09T04:59:15;101337.33;;;0.3;98.51
63691;BME280;49837;57.280;27.070;2022-09-09T05:00:16;101337.7;;;0.34;98.45
63691;BME280;49837;57.280;27.070;2022-09-09T05:01:18;101335.66;;;0.37;98.53
63691;BME280;49837;57.280;27.070;2022-09-09T05:02:16;101338.6;;;0.4;98.62
63691;BME280;49837;57.280;27.070;2022-09-09T05:03:17;101335.0;;;0.42;98.64
63691;BME280;49837;57.280;27.070;2022-09-09T05:04:17;101337.39;;;0.47;98.72
63691;BME280;49837;57.280;27.070;2022-09-09T05:05:17;101339.41;;;0.56;98.66
63691;BME280;49837;57.280;27.070;2022-09-09T05:06:19;101341.09;;;0.63;98.53
63691;BME280;49837;57.280;27.070;2022-09-09T05:07:18;101342.84;;;0.7;98.31
63691;BME280;49837;57.280;27.070;2022-09-09T05:08:18;101344.56;;;0.75;98.15
63691;BME280;49837;57.280;27.070;2022-09-09T05:09:19;101343.75;;;0.81;97.99
63691;BME280;49837;57.280;27.070;2022-09-09T05:10:19;101342.42;;;0.95;97.84
63691;BME280;49837;57.280;27.070;2022-09-09T05:11:27;101343.17;;;1.01;97.52
63691;BME280;49837;57.280;27.070;2022-09-09T05:12:20;101341.02;;;1.07;97.37
63691;BME280;49837;57.280;27.070;2022-09-09T05:13:20;101339.82;;;1.11;97.38
63691;BME280;49837;57.280;27.070;2022-09-09T05:14:21;101336.22;;;1.17;97.23
63691;BME280;49837;57.280;27.070;2022-09-09T05:15:21;101337.53;;;1.17;96.88
63691;BME280;49837;57.280;27.070;2022-09-09T05:16:22;101336.24;;;1.15;96.69
63691;BME280;49837;57.280;27.070;2022-09-09T05:17:22;101338.8;;;1.21;96.77
63691;BME280;49837;57.280;27.070;2022-09-09T05:18:22;101335.91;;;1.32;97.03
63691;BME280;49837;57.280;27.070;2022-09-09T05:19:23;101338.07;;;1.41;97.17
63691;BME280;49837;57.280;27.070;2022-09-09T05:20:23;101335.5;;;1.48;97.39
63691;BME280;49837;57.280;27.070;2022-09-09T05:21:24;101336.53;;;1.58;97.61
63691;BME280;49837;57.280;27.070;2022-09-09T05:22:23;101338.75;;;1.7;97.96
63691;BME280;49837;57.280;27.070;2022-09-09T05:23:24;101345.18;;;1.78;97.9
63691;BME280;49837;57.280;27.070;2022-09-09T05:24:24;101333.69;;;1.84;97.91
63691;BME280;49837;57.280;27.070;2022-09-09T05:25:24;101345.59;;;1.94;98.14
63691;BME280;49837;57.280;27.070;2022-09-09T05:26:25;101342.28;;;1.94;98.11
63691;BME280;49837;57.280;27.070;2022-09-09T05:27:25;101339.88;;;2.0;97.96
63691;BME280;49837;57.280;27.070;2022-09-09T05:28:26;101346.34;;;2.05;97.79
63691;BME280;49837;57.280;27.070;2022-09-09T05:29:26;101342.32;;;2.12;97.89
63691;BME280;49837;57.280;27.070;2022-09-09T05:30:26;101340.56;;;2.22;98.1
63691;BME280;49837;57.280;27.070;2022-09-09T05:31:27;101343.25;;;2.25;98.05
63691;BME280;49837;57.280;27.070;2022-09-09T05:32:27;101341.91;;;2.34;98.07
63691;BME280;49837;57.280;27.070;2022-09-09T05:33:28;101343.77;;;2.4;98.28
63691;BME280;49837;57.280;27.070;2022-09-09T05:34:28;101341.27;;;2.49;98.32
63691;BME280;49837;57.280;27.070;2022-09-09T05:35:28;101344.05;;;2.6;98.19
63691;BME280;49837;57.280;27.070;2022-09-09T05:36:28;101343.0;;;2.68;97.95
63691;BME280;49837;57.280;27.070;2022-09-09T05:37:30;101343.65;;;2.8;97.73
63691;BME280;49837;57.280;27.070;2022-09-09T05:38:30;101342.59;;;2.88;97.35
63691;BME280;49837;57.280;27.070;2022-09-09T05:39:29;101350.38;;;2.99;97.12
63691;BME280;49837;57.280;27.070;2022-09-09T05:40:30;101348.28;;;3.1;96.87
63691;BME280;49837;57.280;27.070;2022-09-09T05:41:30;101347.34;;;3.12;96.61
63691;BME280;49837;57.280;27.070;2022-09-09T05:42:31;101352.61;;;3.2;96.74
63691;BME280;49837;57.280;27.070;2022-09-09T05:43:31;101354.27;;;3.34;96.76
63691;BME280;49837;57.280;27.070;2022-09-09T05:44:31;101357.95;;;3.42;96.43
63691;BME280;49837;57.280;27.070;2022-09-09T05:45:31;101362.68;;;3.42;95.88
63691;BME280;49837;57.280;27.070;2022-09-09T05:46:32;101363.49;;;3.55;96.06
63691;BME280;49837;57.280;27.070;2022-09-09T05:47:32;101361.2;;;3.66;95.74
63691;BME280;49837;57.280;27.070;2022-09-09T05:48:34;101356.94;;;3.72;95.46
63691;BME280;49837;57.280;27.070;2022-09-09T05:49:33;101360.58;;;3.77;95.38
63691;BME280;49837;57.280;27.070;2022-09-09T05:50:33;101361.25;;;3.83;95.44
63691;BME280;49837;57.280;27.070;2022-09-09T05:51:33;101361.62;;;3.92;95.33
63691;BME280;49837;57.280;27.070;2022-09-09T05:52:34;101364.48;;;4.04;95.35
63691;BME280;49837;57.280;27.070;2022-09-09T05:53:34;101362.66;;;4.15;95.07
63691;BME280;49837;57.280;27.070;2022-09-09T05:54:35;101364.48;;;4.22;94.8
63691;BME280;49837;57.280;27.070;2022-09-09T05:55:35;101367.32;;;4.33;94.65
63691;BME280;49837;57.280;27.070;2022-09-09T05:56:35;101368.27;;;4.36;94.27
63691;BME280;49837;57.280;27.070;2022-09-09T05:57:36;101369.77;;;4.43;93.83
63691;BME280;49837;57.280;27.070;2022-09-09T05:58:36;101366.47;;;4.55;92.94
63691;BME280;49837;57.280;27.070;2022-09-09T05:59:37;101364.14;;;4.6;93.49
63691;BME280;49837;57.280;27.070;2022-09-09T06:00:37;101369.88;;;4.56;93.88
63691;BME280;49837;57.280;27.070;2022-09-09T06:01:37;101368.67;;;4.63;94.12
63691;BME280;49837;57.280;27.070;2022-09-09T06:02:37;101369.64;;;4.69;93.75
63691;BME280;49837;57.280;27.070;2022-09-09T06:03:39;101365.3;;;4.77;93.79
63691;BME280;49837;57.280;27.070;2022-09-09T06:04:38;101365.42;;;4.93;93.61
63691;BME280;49837;57.280;27.070;2022-09-09T06:05:39;101362.8;;;5.03;93.26
63691;BME280;49837;57.280;27.070;2022-09-09T06:06:39;101365.83;;;5.09;92.7
63691;BME280;49837;57.280;27.070;2022-09-09T06:07:39;101360.02;;;5.2;92.58
63691;BME280;49837;57.280;27.070;2022-09-09T06:08:42;101362.54;;;5.3;92.42
63691;BME280;49837;57.280;27.070;2022-09-09T06:09:40;101361.98;;;5.4;92.35
63691;BME280;49837;57.280;27.070;2022-09-09T06:10:40;101360.08;;;5.4;91.35
63691;BME280;49837;57.280;27.070;2022-09-09T06:11:41;101364.31;;;5.4;91.02
63691;BME280;49837;57.280;27.070;2022-09-09T06:12:41;101361.03;;;5.46;91.38
63691;BME280;49837;57.280;27.070;2022-09-09T06:13:42;101364.97;;;5.58;91.22
63691;BME280;49837;57.280;27.070;2022-09-09T06:14:42;101362.72;;;5.71;91.34
63691;BME280;49837;57.280;27.070;2022-09-09T06:15:51;101361.87;;;5.8;91.18
63691;BME280;49837;57.280;27.070;2022-09-09T06:16:44;101367.14;;;5.88;90.43
63691;BME280;49837;57.280;27.070;2022-09-09T06:17:44;101364.06;;;5.84;89.62
63691;BME280;49837;57.280;27.070;2022-09-09T06:18:45;101365.87;;;5.75;88.7
63691;BME280;49837;57.280;27.070;2022-09-09T06:19:45;101367.55;;;5.77;88.29
63691;BME280;49837;57.280;27.070;2022-09-09T06:21:51;101370.8;;;5.99;88.53
63691;BME280;49837;57.280;27.070;2022-09-09T06:22:51;101371.58;;;6.09;88.7
63691;BME280;49837;57.280;27.070;2022-09-09T06:23:52;101374.86;;;6.06;88.02
63691;BME280;49837;57.280;27.070;2022-09-09T06:24:55;101374.66;;;6.12;88.12
63691;BME280;49837;57.280;27.070;2022-09-09T06:26:58;101373.25;;;6.33;87.94
63691;BME280;49837;57.280;27.070;2022-09-09T06:27:58;101374.2;;;6.37;86.9
63691;BME280;49837;57.280;27.070;2022-09-09T06:28:59;101370.63;;;6.37;86.88
63691;BME280;49837;57.280;27.070;2022-09-09T06:29:59;101372.92;;;6.36;86.41
63691;BME280;49837;57.280;27.070;2022-09-09T06:31:00;101374.0;;;6.34;86.22
63691;BME280;49837;57.280;27.070;2022-09-09T06:32:00;101372.38;;;6.38;86.27
63691;BME280;49837;57.280;27.070;2022-09-09T06:33:00;101372.22;;;6.43;86.01
63691;BME280;49837;57.280;27.070;2022-09-09T06:34:00;101370.22;;;6.49;85.62